Fleming, Canada
Current Conditions -  °F | °C
As of 5:00 PM on Tuesday 27 Jan 2015 (Local Time) from CYBR Reporting Station
Broken Clouds Broken Clouds  
Wind Chill: 26°   Ceiling: 24000
Heat Index: 32°   Visibility: 15mi
Dew Point: 28°   Wind: 7mph
Humidity: 87%   Direction: 60°ENE
Pressure: 29.84"   Gusts: NA
Location:  50.07°N, 101.52°W
Report Text: CYBR 272300Z 06006KT 15SM FEW110 BKN240 00/M02 A2984 RMK AC1CI6 SLP129
Loading
Personal Weather Stations






























Interactive Weather Map New forecast layout! Learn more

10-Day Weather Forecast

Advertisements
Track Severe Weather on mobile